ETOU/WIE METAR and TAF weather

Enter ICAO airport designator
Station Type Date Time Source
ETOU METAR 2022/06/27 16:56 UTC NOAA

ETOU 271656Z AUTO 27006KT 9999 CLR 23/14 A3006 RMK AO2 SLP178 T02310136 $


Station Type Date Time Source
ETOU Decoded METAR 2022/06/27 16:56 UTC NOAA

Wiesbaden, Germany (ETOU) 50-03N 008-20E
Jun 27, 2022 - 12:56 PM EDT / 2022.06.27 1656 UTC
Wind: from the W (270 degrees) at 7 MPH (6 KT):0
Visibility: greater than 7 mile(s):0
Sky conditions: clear
Temperature: 73.6 F (23.1 C)
Dew Point: 56.5 F (13.6 C)
Relative Humidity: 55%
Pressure (altimeter): 30.06 in. Hg (1017 hPa)
ob: ETOU 271656Z AUTO 27006KT 9999 CLR 23/14 A3006 RMK AO2 SLP178 T02310136
cycle: 17

Station Type Date Time Source
ETOU TAF 2022/06/27 12:12 UTC NOAA

TAF TAF ETOU 271200Z 2712/2818 28009KT 9999 SCT025 BKN040 QNH3003INS
TEMPO 2712/2714 9000 -SHRA SCT015 BKN020
BECMG 2718/2719 VRB06KT 9999 FEW020 SCT100 QNH3009INS
BECMG 2802/2803 VRB04KT 8000 BR FEW020 QNH3019INS
BECMG 2805/2806 04006KT 9999 NSW FEW200 QNH3006INS TX25/2713Z TN12/2803Z

Example: see airport list